sensor_id;sensor_type;location;lat;lon;timestamp;pressure;altitude;pressure_sealevel;temperature;humidity
12879;BME280;20617;49.476;10.986;2024-03-17T00:00:35;98960.31;;;9.28;100.00
12879;BME280;20617;49.476;10.986;2024-03-17T00:02:38;98962.06;;;9.28;100.00
12879;BME280;20617;49.476;10.986;2024-03-17T00:04:39;98958.66;;;9.24;100.00
12879;BME280;20617;49.476;10.986;2024-03-17T00:06:40;98963.84;;;9.26;100.00
12879;BME280;20617;49.476;10.986;2024-03-17T00:08:40;98959.47;;;9.26;100.00
12879;BME280;20617;49.476;10.986;2024-03-17T00:10:41;98960.34;;;9.27;100.00
12879;BME280;20617;49.476;10.986;2024-03-17T00:12:42;98966.44;;;9.26;100.00
12879;BME280;20617;49.476;10.986;2024-03-17T00:14:43;98962.16;;;9.23;100.00
12879;BME280;20617;49.476;10.986;2024-03-17T00:16:43;98964.78;;;9.22;100.00
12879;BME280;20617;49.476;10.986;2024-03-17T00:18:47;98969.13;;;9.21;100.00
12879;BME280;20617;49.476;10.986;2024-03-17T00:20:48;98975.25;;;9.19;100.00
12879;BME280;20617;49.476;10.986;2024-03-17T00:22:49;98973.63;;;9.16;100.00
12879;BME280;20617;49.476;10.986;2024-03-17T00:24:50;98973.63;;;9.15;100.00
12879;BME280;20617;49.476;10.986;2024-03-17T00:26:54;98980.59;;;9.13;100.00
12879;BME280;20617;49.476;10.986;2024-03-17T00:28:54;98988.41;;;9.13;100.00
12879;BME280;20617;49.476;10.986;2024-03-17T00:30:55;98984.19;;;9.07;100.00
12879;BME280;20617;49.476;10.986;2024-03-17T00:32:56;98983.50;;;9.00;100.00
12879;BME280;20617;49.476;10.986;2024-03-17T00:34:59;98986.00;;;9.05;100.00
12879;BME280;20617;49.476;10.986;2024-03-17T00:37:00;98993.88;;;9.02;100.00
12879;BME280;20617;49.476;10.986;2024-03-17T00:39:00;98988.78;;;8.96;100.00
12879;BME280;20617;49.476;10.986;2024-03-17T00:41:02;98992.22;;;8.98;100.00
12879;BME280;20617;49.476;10.986;2024-03-17T00:43:03;98986.94;;;9.01;100.00
12879;BME280;20617;49.476;10.986;2024-03-17T00:45:04;98983.47;;;9.02;100.00
12879;BME280;20617;49.476;10.986;2024-03-17T00:47:06;98985.13;;;9.04;100.00
12879;BME280;20617;49.476;10.986;2024-03-17T00:49:06;98986.09;;;9.00;100.00
12879;BME280;20617;49.476;10.986;2024-03-17T00:51:10;98984.25;;;9.05;100.00
12879;BME280;20617;49.476;10.986;2024-03-17T00:53:13;98974.72;;;9.06;100.00
12879;BME280;20617;49.476;10.986;2024-03-17T00:55:13;98981.53;;;9.10;100.00
12879;BME280;20617;49.476;10.986;2024-03-17T00:57:14;98980.66;;;9.11;100.00
12879;BME280;20617;49.476;10.986;2024-03-17T00:59:15;98979.72;;;9.14;100.00
12879;BME280;20617;49.476;10.986;2024-03-17T01:01:16;98974.47;;;9.17;100.00
12879;BME280;20617;49.476;10.986;2024-03-17T01:03:17;98981.28;;;9.21;100.00
12879;BME280;20617;49.476;10.986;2024-03-17T01:05:18;98974.31;;;9.21;100.00
12879;BME280;20617;49.476;10.986;2024-03-17T01:07:22;98978.59;;;9.24;100.00
12879;BME280;20617;49.476;10.986;2024-03-17T01:09:22;98968.19;;;9.24;100.00
12879;BME280;20617;49.476;10.986;2024-03-17T01:11:23;98962.09;;;9.25;100.00
12879;BME280;20617;49.476;10.986;2024-03-17T01:13:24;98963.75;;;9.29;100.00
12879;BME280;20617;49.476;10.986;2024-03-17T01:15:24;98967.97;;;9.33;100.00
12879;BME280;20617;49.476;10.986;2024-03-17T01:17:25;98971.41;;;9.34;100.00
12879;BME280;20617;49.476;10.986;2024-03-17T01:19:26;98977.56;;;9.31;100.00
12879;BME280;20617;49.476;10.986;2024-03-17T01:21:27;98971.72;;;9.23;100.00
12879;BME280;20617;49.476;10.986;2024-03-17T01:23:30;98971.78;;;9.20;100.00
12879;BME280;20617;49.476;10.986;2024-03-17T01:25:33;98971.03;;;9.15;100.00
12879;BME280;20617;49.476;10.986;2024-03-17T01:27:33;98972.81;;;9.13;100.00
12879;BME280;20617;49.476;10.986;2024-03-17T01:29:34;98968.34;;;9.19;100.00
12879;BME280;20617;49.476;10.986;2024-03-17T01:31:35;98969.88;;;9.26;100.00
12879;BME280;20617;49.476;10.986;2024-03-17T01:33:36;98965.41;;;9.32;100.00
12879;BME280;20617;49.476;10.986;2024-03-17T01:35:36;98957.50;;;9.36;100.00
12879;BME280;20617;49.476;10.986;2024-03-17T01:37:37;98955.91;;;9.30;100.00
12879;BME280;20617;49.476;10.986;2024-03-17T01:39:40;98952.44;;;9.32;100.00
12879;BME280;20617;49.476;10.986;2024-03-17T01:41:43;98946.38;;;9.31;100.00
12879;BME280;20617;49.476;10.986;2024-03-17T01:43:44;98950.03;;;9.24;100.00
12879;BME280;20617;49.476;10.986;2024-03-17T01:45:45;98941.56;;;9.16;100.00
12879;BME280;20617;49.476;10.986;2024-03-17T01:47:46;98945.09;;;9.13;100.00
12879;BME280;20617;49.476;10.986;2024-03-17T01:49:47;98940.88;;;9.09;100.00
12879;BME280;20617;49.476;10.986;2024-03-17T01:51:50;98945.31;;;9.05;100.00
12879;BME280;20617;49.476;10.986;2024-03-17T01:53:51;98942.84;;;8.99;100.00
12879;BME280;20617;49.476;10.986;2024-03-17T01:55:57;98937.50;;;9.05;100.00
12879;BME280;20617;49.476;10.986;2024-03-17T01:57:59;98938.25;;;9.11;100.00
12879;BME280;20617;49.476;10.986;2024-03-17T02:00:00;98933.81;;;9.14;100.00
12879;BME280;20617;49.476;10.986;2024-03-17T02:02:02;98929.47;;;9.16;100.00
12879;BME280;20617;49.476;10.986;2024-03-17T02:04:04;98932.06;;;9.16;100.00
12879;BME280;20617;49.476;10.986;2024-03-17T02:06:07;98934.56;;;9.19;100.00
12879;BME280;20617;49.476;10.986;2024-03-17T02:08:10;98932.84;;;9.18;100.00
12879;BME280;20617;49.476;10.986;2024-03-17T02:10:11;98937.44;;;9.07;100.00
12879;BME280;20617;49.476;10.986;2024-03-17T02:12:14;98936.00;;;8.95;100.00
12879;BME280;20617;49.476;10.986;2024-03-17T02:14:15;98923.19;;;8.89;100.00
12879;BME280;20617;49.476;10.986;2024-03-17T02:16:16;98923.16;;;8.91;100.00
12879;BME280;20617;49.476;10.986;2024-03-17T02:18:17;98920.56;;;8.91;100.00
12879;BME280;20617;49.476;10.986;2024-03-17T02:20:18;98918.81;;;8.91;100.00
12879;BME280;20617;49.476;10.986;2024-03-17T02:22:22;98916.16;;;8.93;100.00
12879;BME280;20617;49.476;10.986;2024-03-17T02:24:23;98908.69;;;8.80;100.00
12879;BME280;20617;49.476;10.986;2024-03-17T02:26:25;98910.53;;;8.75;100.00
12879;BME280;20617;49.476;10.986;2024-03-17T02:28:26;98901.97;;;8.72;100.00
12879;BME280;20617;49.476;10.986;2024-03-17T02:30:27;98906.53;;;8.62;100.00
12879;BME280;20617;49.476;10.986;2024-03-17T02:32:28;98907.53;;;8.56;100.00
12879;BME280;20617;49.476;10.986;2024-03-17T02:34:29;98914.78;;;8.44;100.00
12879;BME280;20617;49.476;10.986;2024-03-17T02:36:29;98908.75;;;8.42;100.00
12879;BME280;20617;49.476;10.986;2024-03-17T02:38:34;98913.97;;;8.40;100.00
12879;BME280;20617;49.476;10.986;2024-03-17T02:40:34;98909.78;;;8.33;100.00
12879;BME280;20617;49.476;10.986;2024-03-17T02:42:35;98913.59;;;8.16;100.00
12879;BME280;20617;49.476;10.986;2024-03-17T02:44:37;98917.84;;;8.19;100.00
12879;BME280;20617;49.476;10.986;2024-03-17T02:46:38;98918.81;;;8.15;100.00
12879;BME280;20617;49.476;10.986;2024-03-17T02:48:40;98917.03;;;8.17;100.00
12879;BME280;20617;49.476;10.986;2024-03-17T02:50:43;98922.28;;;8.15;100.00
12879;BME280;20617;49.476;10.986;2024-03-17T02:52:43;98918.81;;;8.15;100.00
12879;BME280;20617;49.476;10.986;2024-03-17T02:54:47;98925.72;;;8.16;100.00
12879;BME280;20617;49.476;10.986;2024-03-17T02:56:47;98913.59;;;8.16;100.00
12879;BME280;20617;49.476;10.986;2024-03-17T02:58:48;98912.81;;;8.13;100.00
12879;BME280;20617;49.476;10.986;2024-03-17T03:00:49;98906.78;;;8.12;100.00
12879;BME280;20617;49.476;10.986;2024-03-17T03:02:50;98918.97;;;8.09;100.00
12879;BME280;20617;49.476;10.986;2024-03-17T03:04:50;98913.84;;;8.06;100.00
12879;BME280;20617;49.476;10.986;2024-03-17T03:06:51;98928.56;;;8.04;100.00
12879;BME280;20617;49.476;10.986;2024-03-17T03:08:52;98919.13;;;8.01;100.00
12879;BME280;20617;49.476;10.986;2024-03-17T03:10:55;98924.22;;;8.04;100.00
12879;BME280;20617;49.476;10.986;2024-03-17T03:12:56;98927.66;;;8.06;100.00
12879;BME280;20617;49.476;10.986;2024-03-17T03:14:58;98926.69;;;8.10;100.00
12879;BME280;20617;49.476;10.986;2024-03-17T03:16:59;98929.44;;;8.03;100.00
12879;BME280;20617;49.476;10.986;2024-03-17T03:18:59;98931.94;;;8.09;100.00
12879;BME280;20617;49.476;10.986;2024-03-17T03:21:00;98936.22;;;8.08;100.00
12879;BME280;20617;49.476;10.986;2024-03-17T03:23:01;98937.19;;;8.04;100.00
12879;BME280;20617;49.476;10.986;2024-03-17T03:25:02;98937.28;;;8.00;100.00
12879;BME280;20617;49.476;10.986;2024-03-17T03:27:05;98943.34;;;8.00;100.00
12879;BME280;20617;49.476;10.986;2024-03-17T03:29:06;98938.16;;;8.00;100.00
12879;BME280;20617;49.476;10.986;2024-03-17T03:31:11;98938.09;;;8.02;100.00
12879;BME280;20617;49.476;10.986;2024-03-17T03:33:12;98938.09;;;8.02;100.00
12879;BME280;20617;49.476;10.986;2024-03-17T03:35:12;98942.41;;;8.03;100.00
12879;BME280;20617;49.476;10.986;2024-03-17T03:37:13;98935.50;;;8.02;100.00
12879;BME280;20617;49.476;10.986;2024-03-17T03:39:14;98937.19;;;8.04;100.00
12879;BME280;20617;49.476;10.986;2024-03-17T03:41:16;98935.44;;;8.06;100.00
12879;BME280;20617;49.476;10.986;2024-03-17T03:43:20;98934.47;;;8.10;100.00
12879;BME280;20617;49.476;10.986;2024-03-17T03:45:21;98931.81;;;8.13;100.00
12879;BME280;20617;49.476;10.986;2024-03-17T03:47:21;98939.50;;;8.18;100.00
12879;BME280;20617;49.476;10.986;2024-03-17T03:49:22;98929.94;;;8.20;100.00
12879;BME280;20617;49.476;10.986;2024-03-17T03:51:25;98926.34;;;8.27;100.00
12879;BME280;20617;49.476;10.986;2024-03-17T03:53:26;98927.97;;;8.31;100.00
12879;BME280;20617;49.476;10.986;2024-03-17T03:55:26;98927.03;;;8.35;100.00
12879;BME280;20617;49.476;10.986;2024-03-17T03:57:27;98930.44;;;8.39;100.00
12879;BME280;20617;49.476;10.986;2024-03-17T03:59:31;98923.34;;;8.46;100.00
12879;BME280;20617;49.476;10.986;2024-03-17T04:01:33;98927.63;;;8.48;100.00
12879;BME280;20617;49.476;10.986;2024-03-17T04:03:38;98924.03;;;8.54;100.00
12879;BME280;20617;49.476;10.986;2024-03-17T04:05:40;98923.09;;;8.56;100.00
12879;BME280;20617;49.476;10.986;2024-03-17T04:07:40;98922.19;;;8.59;100.00
12879;BME280;20617;49.476;10.986;2024-03-17T04:09:41;98922.19;;;8.59;100.00
12879;BME280;20617;49.476;10.986;2024-03-17T04:11:42;98920.47;;;8.58;100.00
12879;BME280;20617;49.476;10.986;2024-03-17T04:13:42;98924.72;;;8.60;100.00
12879;BME280;20617;49.476;10.986;2024-03-17T04:15:46;98920.38;;;8.63;100.00
12879;BME280;20617;49.476;10.986;2024-03-17T04:17:46;98924.66;;;8.64;100.00
12879;BME280;20617;49.476;10.986;2024-03-17T04:19:47;98916.03;;;8.63;100.00
12879;BME280;20617;49.476;10.986;2024-03-17T04:21:48;98917.75;;;8.64;100.00
12879;BME280;20617;49.476;10.986;2024-03-17T04:23:48;98924.66;;;8.64;100.00
12879;BME280;20617;49.476;10.986;2024-03-17T04:25:51;98916.16;;;8.57;100.00
12879;BME280;20617;49.476;10.986;2024-03-17T04:27:52;98920.75;;;8.46;100.00
12879;BME280;20617;49.476;10.986;2024-03-17T04:29:53;98923.25;;;8.50;100.00
12879;BME280;20617;49.476;10.986;2024-03-17T04:31:56;98928.44;;;8.50;100.00
12879;BME280;20617;49.476;10.986;2024-03-17T04:33:57;98921.50;;;8.51;100.00
12879;BME280;20617;49.476;10.986;2024-03-17T04:35:58;98924.81;;;8.57;100.00
12879;BME280;20617;49.476;10.986;2024-03-17T04:37:59;98924.81;;;8.57;100.00
12879;BME280;20617;49.476;10.986;2024-03-17T04:39:59;98924.72;;;8.62;100.00
12879;BME280;20617;49.476;10.986;2024-03-17T04:42:00;98922.88;;;8.66;100.00
12879;BME280;20617;49.476;10.986;2024-03-17T04:44:01;98926.25;;;8.69;100.00
12879;BME280;20617;49.476;10.986;2024-03-17T04:46:03;98921.81;;;8.74;100.00
12879;BME280;20617;49.476;10.986;2024-03-17T04:48:07;98927.00;;;8.74;100.00
12879;BME280;20617;49.476;10.986;2024-03-17T04:50:08;98920.19;;;8.70;100.00
12879;BME280;20617;49.476;10.986;2024-03-17T04:52:11;98921.44;;;8.54;100.00
12879;BME280;20617;49.476;10.986;2024-03-17T04:54:12;98925.00;;;8.50;100.00
12879;BME280;20617;49.476;10.986;2024-03-17T04:56:13;98926.69;;;8.51;100.00
12879;BME280;20617;49.476;10.986;2024-03-17T04:58:13;98925.78;;;8.53;100.00
12879;BME280;20617;49.476;10.986;2024-03-17T05:00:15;98916.31;;;8.51;100.00
12879;BME280;20617;49.476;10.986;2024-03-17T05:02:15;98917.28;;;8.47;100.00
12879;BME280;20617;49.476;10.986;2024-03-17T05:04:19;98920.69;;;8.49;100.00
12879;BME280;20617;49.476;10.986;2024-03-17T05:06:19;98925.09;;;8.45;100.00
12879;BME280;20617;49.476;10.986;2024-03-17T05:08:20;98933.22;;;8.28;100.00
12879;BME280;20617;49.476;10.986;2024-03-17T05:10:21;98933.41;;;8.21;100.00
12879;BME280;20617;49.476;10.986;2024-03-17T05:12:22;98936.91;;;8.18;100.00
12879;BME280;20617;49.476;10.986;2024-03-17T05:14:22;98924.72;;;8.23;100.00
12879;BME280;20617;49.476;10.986;2024-03-17T05:16:23;98928.16;;;8.24;100.00
12879;BME280;20617;49.476;10.986;2024-03-17T05:18:24;98928.16;;;8.24;100.00
12879;BME280;20617;49.476;10.986;2024-03-17T05:20:27;98933.50;;;8.16;100.00
12879;BME280;20617;49.476;10.986;2024-03-17T05:22:28;98941.13;;;8.22;100.00
12879;BME280;20617;49.476;10.986;2024-03-17T05:24:28;98941.91;;;8.27;100.00
12879;BME280;20617;49.476;10.986;2024-03-17T05:26:29;98942.03;;;8.20;100.00
12879;BME280;20617;49.476;10.986;2024-03-17T05:28:30;98941.19;;;8.21;100.00
12879;BME280;20617;49.476;10.986;2024-03-17T05:30:31;98944.50;;;8.26;100.00
12879;BME280;20617;49.476;10.986;2024-03-17T05:32:31;98935.00;;;8.26;100.00
12879;BME280;20617;49.476;10.986;2024-03-17T05:34:32;98941.84;;;8.29;100.00
12879;BME280;20617;49.476;10.986;2024-03-17T05:36:36;98934.00;;;8.32;100.00
12879;BME280;20617;49.476;10.986;2024-03-17T05:38:36;98934.00;;;8.32;100.00
12879;BME280;20617;49.476;10.986;2024-03-17T05:40:37;98946.22;;;8.27;100.00
12879;BME280;20617;49.476;10.986;2024-03-17T05:42:38;98948.06;;;8.23;100.00
12879;BME280;20617;49.476;10.986;2024-03-17T05:44:41;98953.31;;;8.19;100.00
12879;BME280;20617;49.476;10.986;2024-03-17T05:46:42;98953.25;;;8.22;100.00
12879;BME280;20617;49.476;10.986;2024-03-17T05:48:43;98949.63;;;8.29;100.00
12879;BME280;20617;49.476;10.986;2024-03-17T05:50:44;98957.31;;;8.33;100.00
12879;BME280;20617;49.476;10.986;2024-03-17T05:52:47;98958.91;;;8.41;100.00
12879;BME280;20617;49.476;10.986;2024-03-17T05:54:48;98950.34;;;8.38;100.00
12879;BME280;20617;49.476;10.986;2024-03-17T05:56:49;98956.38;;;8.39;100.00
12879;BME280;20617;49.476;10.986;2024-03-17T05:58:49;98952.03;;;8.39;100.00
12879;BME280;20617;49.476;10.986;2024-03-17T06:00:50;98951.22;;;8.36;100.00
12879;BME280;20617;49.476;10.986;2024-03-17T06:02:51;98962.41;;;8.38;100.00
12879;BME280;20617;49.476;10.986;2024-03-17T06:04:51;98961.50;;;8.41;100.00
12879;BME280;20617;49.476;10.986;2024-03-17T06:06:52;98966.78;;;8.36;100.00
12879;BME280;20617;49.476;10.986;2024-03-17T06:08:56;98967.72;;;8.32;100.00
12879;BME280;20617;49.476;10.986;2024-03-17T06:10:56;98966.06;;;8.29;100.00
12879;BME280;20617;49.476;10.986;2024-03-17T06:12:57;98962.56;;;8.30;100.00
12879;BME280;20617;49.476;10.986;2024-03-17T06:14:58;98958.16;;;8.35;100.00
12879;BME280;20617;49.476;10.986;2024-03-17T06:16:59;98963.31;;;8.38;100.00
12879;BME280;20617;49.476;10.986;2024-03-17T06:18:59;98963.34;;;8.34;100.00
12879;BME280;20617;49.476;10.986;2024-03-17T06:21:00;98966.66;;;8.44;100.00
12879;BME280;20617;49.476;10.986;2024-03-17T06:23:01;98965.56;;;8.54;100.00
12879;BME280;20617;49.476;10.986;2024-03-17T06:25:05;98960.19;;;8.61;100.00
12879;BME280;20617;49.476;10.986;2024-03-17T06:27:06;98961.75;;;8.69;100.00
12879;BME280;20617;49.476;10.986;2024-03-17T06:29:06;98959.22;;;8.66;100.00
12879;BME280;20617;49.476;10.986;2024-03-17T06:31:08;98958.22;;;8.73;100.00
12879;BME280;20617;49.476;10.986;2024-03-17T06:33:11;98951.16;;;8.78;100.00
12879;BME280;20617;49.476;10.986;2024-03-17T06:35:12;98952.75;;;8.83;100.00
12879;BME280;20617;49.476;10.986;2024-03-17T06:37:13;98955.16;;;8.91;100.00
12879;BME280;20617;49.476;10.986;2024-03-17T06:39:16;98950.72;;;8.96;100.00
12879;BME280;20617;49.476;10.986;2024-03-17T06:41:19;98952.41;;;8.99;100.00
12879;BME280;20617;49.476;10.986;2024-03-17T06:43:20;98948.06;;;8.99;100.00
12879;BME280;20617;49.476;10.986;2024-03-17T06:45:21;98947.16;;;9.00;100.00
12879;BME280;20617;49.476;10.986;2024-03-17T06:47:21;98949.66;;;9.03;100.00
12879;BME280;20617;49.476;10.986;2024-03-17T06:49:22;98949.66;;;9.05;100.00
12879;BME280;20617;49.476;10.986;2024-03-17T06:51:23;98952.31;;;9.02;100.00
12879;BME280;20617;49.476;10.986;2024-03-17T06:53:24;98949.66;;;9.03;100.00
12879;BME280;20617;49.476;10.986;2024-03-17T06:55:24;98939.25;;;9.05;100.00
12879;BME280;20617;49.476;10.986;2024-03-17T06:57:28;98934.94;;;9.04;100.00
12879;BME280;20617;49.476;10.986;2024-03-17T06:59:32;98938.34;;;9.06;100.00
12879;BME280;20617;49.476;10.986;2024-03-17T07:01:33;98936.81;;;8.99;100.00
12879;BME280;20617;49.476;10.986;2024-03-17T07:03:34;98932.53;;;8.96;100.00
12879;BME280;20617;49.476;10.986;2024-03-17T07:05:34;98937.59;;;9.02;100.00
12879;BME280;20617;49.476;10.986;2024-03-17T07:07:35;98942.13;;;8.93;100.00
12879;BME280;20617;49.476;10.986;2024-03-17T07:09:36;98941.22;;;8.95;100.00
12879;BME280;20617;49.476;10.986;2024-03-17T07:11:36;98944.53;;;9.02;100.00
12879;BME280;20617;49.476;10.986;2024-03-17T07:13:40;98941.84;;;9.05;100.00
12879;BME280;20617;49.476;10.986;2024-03-17T07:15:46;98934.84;;;9.07;100.00
12879;BME280;20617;49.476;10.986;2024-03-17T07:17:49;98931.25;;;9.13;100.00
12879;BME280;20617;49.476;10.986;2024-03-17T07:19:50;98937.25;;;9.16;100.00
12879;BME280;20617;49.476;10.986;2024-03-17T07:21:50;98941.69;;;9.11;100.00
12879;BME280;20617;49.476;10.986;2024-03-17T07:23:51;98937.25;;;9.16;100.00
12879;BME280;20617;49.476;10.986;2024-03-17T07:25:52;98934.66;;;9.15;100.00
12879;BME280;20617;49.476;10.986;2024-03-17T07:27:53;98938.03;;;9.18;100.00
12879;BME280;20617;49.476;10.986;2024-03-17T07:29:59;98938.13;;;9.15;100.00
12879;BME280;20617;49.476;10.986;2024-03-17T07:32:01;98936.34;;;9.17;100.00
12879;BME280;20617;49.476;10.986;2024-03-17T07:34:02;98934.41;;;9.25;100.00
12879;BME280;20617;49.476;10.986;2024-03-17T07:36:03;98933.25;;;9.36;100.00
12879;BME280;20617;49.476;10.986;2024-03-17T07:38:04;98936.75;;;9.35;100.00
12879;BME280;20617;49.476;10.986;2024-03-17T07:40:06;98935.03;;;9.34;100.00
12879;BME280;20617;49.476;10.986;2024-03-17T07:42:07;98935.16;;;9.29;100.00
12879;BME280;20617;49.476;10.986;2024-03-17T07:44:07;98928.22;;;9.29;100.00
12879;BME280;20617;49.476;10.986;2024-03-17T07:46:11;98925.44;;;9.37;100.00
12879;BME280;20617;49.476;10.986;2024-03-17T07:48:12;98925.44;;;9.37;100.00
12879;BME280;20617;49.476;10.986;2024-03-17T07:50:13;98920.91;;;9.44;100.00
12879;BME280;20617;49.476;10.986;2024-03-17T07:52:14;98926.13;;;9.44;100.00
12879;BME280;20617;49.476;10.986;2024-03-17T07:54:15;98926.00;;;9.48;100.00
12879;BME280;20617;49.476;10.986;2024-03-17T07:56:16;98930.25;;;9.51;100.00
12879;BME280;20617;49.476;10.986;2024-03-17T07:58:19;98923.19;;;9.56;100.00
12879;BME280;20617;49.476;10.986;2024-03-17T08:00:19;98930.09;;;9.57;100.00
12879;BME280;20617;49.476;10.986;2024-03-17T08:02:23;98925.00;;;9.54;100.00
12879;BME280;20617;49.476;10.986;2024-03-17T08:04:23;98924.25;;;9.49;100.00
12879;BME280;20617;49.476;10.986;2024-03-17T08:06:25;98922.50;;;9.49;100.00
12879;BME280;20617;49.476;10.986;2024-03-17T08:08:26;98918.81;;;9.58;100.00
12879;BME280;20617;49.476;10.986;2024-03-17T08:10:27;98916.94;;;9.63;100.00
12879;BME280;20617;49.476;10.986;2024-03-17T08:12:28;98918.66;;;9.63;100.00
12879;BME280;20617;49.476;10.986;2024-03-17T08:14:29;98914.19;;;9.68;100.00
12879;BME280;20617;49.476;10.986;2024-03-17T08:16:30;98914.28;;;9.65;100.00
12879;BME280;20617;49.476;10.986;2024-03-17T08:18:33;98908.06;;;9.70;100.00
12879;BME280;20617;49.476;10.986;2024-03-17T08:20:36;98905.28;;;9.77;100.00
12879;BME280;20617;49.476;10.986;2024-03-17T08:22:37;98908.25;;;9.94;100.00
12879;BME280;20617;49.476;10.986;2024-03-17T08:24:38;98898.06;;;10.16;100.00
12879;BME280;20617;49.476;10.986;2024-03-17T08:26:38;98898.09;;;10.44;100.00
12879;BME280;20617;49.476;10.986;2024-03-17T08:28:39;98899.13;;;10.67;100.00
12879;BME280;20617;49.476;10.986;2024-03-17T08:30:42;98901.91;;;10.88;100.00
12879;BME280;20617;49.476;10.986;2024-03-17T08:32:42;98890.75;;;11.10;100.00
12879;BME280;20617;49.476;10.986;2024-03-17T08:34:48;98886.97;;;11.44;100.00
12879;BME280;20617;49.476;10.986;2024-03-17T08:36:49;98876.50;;;11.69;100.00
12879;BME280;20617;49.476;10.986;2024-03-17T08:38:50;98871.19;;;11.95;100.00
12879;BME280;20617;49.476;10.986;2024-03-17T08:40:51;98878.47;;;12.33;100.00
12879;BME280;20617;49.476;10.986;2024-03-17T08:42:52;98874.25;;;12.73;100.00
12879;BME280;20617;49.476;10.986;2024-03-17T08:44:52;98872.47;;;12.95;100.00
12879;BME280;20617;49.476;10.986;2024-03-17T08:46:53;98877.59;;;12.97;100.00
12879;BME280;20617;49.476;10.986;2024-03-17T08:48:54;98875.25;;;12.90;100.00
12879;BME280;20617;49.476;10.986;2024-03-17T08:51:00;98875.78;;;12.78;100.00
12879;BME280;20617;49.476;10.986;2024-03-17T08:53:01;98885.09;;;12.63;100.00
12879;BME280;20617;49.476;10.986;2024-03-17T08:55:02;98884.19;;;12.42;100.00
12879;BME280;20617;49.476;10.986;2024-03-17T08:57:03;98884.31;;;12.39;100.00
12879;BME280;20617;49.476;10.986;2024-03-17T08:59:04;98881.16;;;12.31;100.00
12879;BME280;20617;49.476;10.986;2024-03-17T09:01:08;98884.03;;;12.23;100.00
12879;BME280;20617;49.476;10.986;2024-03-17T09:03:08;98887.84;;;12.15;100.00
12879;BME280;20617;49.476;10.986;2024-03-17T09:05:09;98882.03;;;12.08;100.00
12879;BME280;20617;49.476;10.986;2024-03-17T09:07:13;98880.53;;;12.01;100.00
12879;BME280;20617;49.476;10.986;2024-03-17T09:09:13;98879.09;;;11.94;100.00
12879;BME280;20617;49.476;10.986;2024-03-17T09:11:14;98881.09;;;11.87;100.00
12879;BME280;20617;49.476;10.986;2024-03-17T09:13:16;98884.66;;;11.83;100.00
12879;BME280;20617;49.476;10.986;2024-03-17T09:15:17;98885.69;;;11.79;100.00
12879;BME280;20617;49.476;10.986;2024-03-17T09:17:20;98878.72;;;11.79;100.00
12879;BME280;20617;49.476;10.986;2024-03-17T09:19:21;98883.03;;;11.81;100.00
12879;BME280;20617;49.476;10.986;2024-03-17T09:21:22;98884.59;;;11.86;100.00
12879;BME280;20617;49.476;10.986;2024-03-17T09:23:25;98879.31;;;11.88;100.00
12879;BME280;20617;49.476;10.986;2024-03-17T09:25:26;98882.91;;;11.85;100.00
12879;BME280;20617;49.476;10.986;2024-03-17T09:27:26;98879.94;;;11.94;100.00
12879;BME280;20617;49.476;10.986;2024-03-17T09:29:27;98872.59;;;12.04;100.00
12879;BME280;20617;49.476;10.986;2024-03-17T09:31:28;98872.19;;;12.15;100.00
12879;BME280;20617;49.476;10.986;2024-03-17T09:33:29;98874.06;;;12.33;100.00
12879;BME280;20617;49.476;10.986;2024-03-17T09:35:30;98870.75;;;12.52;100.00
12879;BME280;20617;49.476;10.986;2024-03-17T09:37:31;98859.00;;;12.62;100.00
12879;BME280;20617;49.476;10.986;2024-03-17T09:39:35;98857.16;;;12.65;100.00
12879;BME280;20617;49.476;10.986;2024-03-17T09:41:41;98855.13;;;12.72;100.00
12879;BME280;20617;49.476;10.986;2024-03-17T09:43:42;98854.34;;;12.70;100.00
12879;BME280;20617;49.476;10.986;2024-03-17T09:45:43;98852.63;;;12.69;100.00
12879;BME280;20617;49.476;10.986;2024-03-17T09:47:46;98853.53;;;12.68;100.00
12879;BME280;20617;49.476;10.986;2024-03-17T09:49:48;98848.19;;;12.71;100.00
12879;BME280;20617;49.476;10.986;2024-03-17T09:51:49;98845.41;;;12.76;100.00
12879;BME280;20617;49.476;10.986;2024-03-17T09:53:54;98843.88;;;12.70;100.00
12879;BME280;20617;49.476;10.986;2024-03-17T09:55:59;98840.88;;;12.79;100.00
12879;BME280;20617;49.476;10.986;2024-03-17T09:58:01;98837.88;;;12.88;100.00
12879;BME280;20617;49.476;10.986;2024-03-17T10:00:04;98841.88;;;12.97;100.00
12879;BME280;20617;49.476;10.986;2024-03-17T10:02:19;98842.75;;;12.98;100.00
12879;BME280;20617;49.476;10.986;2024-03-17T10:04:31;98831.09;;;13.05;100.00
12879;BME280;20617;49.476;10.986;2024-03-17T10:06:32;98838.63;;;13.12;100.00
12879;BME280;20617;49.476;10.986;2024-03-17T10:08:34;98840.56;;;13.07;100.00
12879;BME280;20617;49.476;10.986;2024-03-17T10:10:40;98838.50;;;13.16;100.00
12879;BME280;20617;49.476;10.986;2024-03-17T10:12:44;98845.41;;;13.17;100.00
12879;BME280;20617;49.476;10.986;2024-03-17T10:14:57;98836.44;;;13.22;100.00
12879;BME280;20617;49.476;10.986;2024-03-17T10:16:58;98841.25;;;13.33;100.00
12879;BME280;20617;49.476;10.986;2024-03-17T10:19:08;98833.00;;;13.42;100.00
12879;BME280;20617;49.476;10.986;2024-03-17T10:21:25;98829.41;;;13.45;100.00
12879;BME280;20617;49.476;10.986;2024-03-17T10:23:26;98833.50;;;13.50;100.00
12879;BME280;20617;49.476;10.986;2024-03-17T10:25:27;98827.28;;;13.53;100.00
12879;BME280;20617;49.476;10.986;2024-03-17T10:27:28;98827.22;;;13.54;100.00
12879;BME280;20617;49.476;10.986;2024-03-17T10:29:32;98827.00;;;13.59;100.00
12879;BME280;20617;49.476;10.986;2024-03-17T10:31:38;98815.84;;;13.74;100.00
12879;BME280;20617;49.476;10.986;2024-03-17T10:33:39;98818.97;;;13.82;99.87